sensor_id;sensor_type;location;lat;lon;timestamp;P1;durP1;ratioP1;P2;durP2;ratioP2
75342;SDS011;63936;51.006;13.764;2023-01-28T00:00:02;25;;;10;;
75342;SDS011;63936;51.006;13.764;2023-01-28T00:02:01;22;;;11;;
75342;SDS011;63936;51.006;13.764;2023-01-28T00:04:01;19;;;10;;
75342;SDS011;63936;51.006;13.764;2023-01-28T00:06:01;23;;;10;;
75342;SDS011;63936;51.006;13.764;2023-01-28T00:08:01;23;;;10;;
75342;SDS011;63936;51.006;13.764;2023-01-28T00:10:02;38;;;19;;
75342;SDS011;63936;51.006;13.764;2023-01-28T00:12:01;29;;;14;;
75342;SDS011;63936;51.006;13.764;2023-01-28T00:14:01;26;;;12;;
75342;SDS011;63936;51.006;13.764;2023-01-28T00:16:02;24;;;10;;
75342;SDS011;63936;51.006;13.764;2023-01-28T00:18:02;19;;;10;;
75342;SDS011;63936;51.006;13.764;2023-01-28T00:20:02;19;;;10;;
75342;SDS011;63936;51.006;13.764;2023-01-28T00:22:02;48;;;13;;
75342;SDS011;63936;51.006;13.764;2023-01-28T00:24:02;31;;;17;;
75342;SDS011;63936;51.006;13.764;2023-01-28T00:26:02;28;;;10;;
75342;SDS011;63936;51.006;13.764;2023-01-28T00:28:01;19;;;9;;
75342;SDS011;63936;51.006;13.764;2023-01-28T00:30:02;19;;;9;;
75342;SDS011;63936;51.006;13.764;2023-01-28T00:32:01;200;;;20;;
75342;SDS011;63936;51.006;13.764;2023-01-28T00:34:01;35;;;10;;
75342;SDS011;63936;51.006;13.764;2023-01-28T00:36:02;18;;;8;;
75342;SDS011;63936;51.006;13.764;2023-01-28T00:38:01;16;;;8;;
75342;SDS011;63936;51.006;13.764;2023-01-28T00:40:02;61;;;11;;
75342;SDS011;63936;51.006;13.764;2023-01-28T00:42:01;142;;;16;;
75342;SDS011;63936;51.006;13.764;2023-01-28T00:44:01;14;;;9;;
75342;SDS011;63936;51.006;13.764;2023-01-28T00:46:01;77;;;9;;
75342;SDS011;63936;51.006;13.764;2023-01-28T00:48:02;10;;;5;;
75342;SDS011;63936;51.006;13.764;2023-01-28T00:50:02;18;;;8;;
75342;SDS011;63936;51.006;13.764;2023-01-28T00:52:02;164;;;20;;
75342;SDS011;63936;51.006;13.764;2023-01-28T00:54:02;14;;;7;;
75342;SDS011;63936;51.006;13.764;2023-01-28T00:56:02;19;;;7;;
75342;SDS011;63936;51.006;13.764;2023-01-28T00:58:01;12;;;6;;
75342;SDS011;63936;51.006;13.764;2023-01-28T01:00:01;13;;;6;;
75342;SDS011;63936;51.006;13.764;2023-01-28T01:02:04;13;;;6;;
75342;SDS011;63936;51.006;13.764;2023-01-28T01:04:04;9;;;5;;
75342;SDS011;63936;51.006;13.764;2023-01-28T01:06:05;9;;;5;;
75342;SDS011;63936;51.006;13.764;2023-01-28T01:08:04;9;;;5;;
75342;SDS011;63936;51.006;13.764;2023-01-28T01:10:06;28;;;9;;
75342;SDS011;63936;51.006;13.764;2023-01-28T01:12:02;14;;;7;;
75342;SDS011;63936;51.006;13.764;2023-01-28T01:14:02;10;;;6;;
75342;SDS011;63936;51.006;13.764;2023-01-28T01:16:02;10;;;6;;
75342;SDS011;63936;51.006;13.764;2023-01-28T01:18:02;16;;;9;;
75342;SDS011;63936;51.006;13.764;2023-01-28T01:20:05;12;;;7;;
75342;SDS011;63936;51.006;13.764;2023-01-28T01:22:02;12;;;7;;
75342;SDS011;63936;51.006;13.764;2023-01-28T01:24:02;12;;;7;;
75342;SDS011;63936;51.006;13.764;2023-01-28T01:26:02;13;;;7;;
75342;SDS011;63936;51.006;13.764;2023-01-28T01:28:02;18;;;10;;
75342;SDS011;63936;51.006;13.764;2023-01-28T01:30:03;18;;;10;;
75342;SDS011;63936;51.006;13.764;2023-01-28T01:32:02;19;;;11;;
75342;SDS011;63936;51.006;13.764;2023-01-28T01:34:02;15;;;9;;
75342;SDS011;63936;51.006;13.764;2023-01-28T01:36:02;11;;;6;;
75342;SDS011;63936;51.006;13.764;2023-01-28T01:38:04;12;;;7;;
75342;SDS011;63936;51.006;13.764;2023-01-28T01:40:09;12;;;5;;
75342;SDS011;63936;51.006;13.764;2023-01-28T01:42:03;11;;;6;;
75342;SDS011;63936;51.006;13.764;2023-01-28T01:44:04;12;;;6;;
75342;SDS011;63936;51.006;13.764;2023-01-28T01:46:04;13;;;5;;
75342;SDS011;63936;51.006;13.764;2023-01-28T01:48:04;13;;;5;;
75342;SDS011;63936;51.006;13.764;2023-01-28T01:50:06;20;;;11;;
75342;SDS011;63936;51.006;13.764;2023-01-28T01:52:08;20;;;11;;
75342;SDS011;63936;51.006;13.764;2023-01-28T01:54:02;20;;;11;;
75342;SDS011;63936;51.006;13.764;2023-01-28T01:56:03;18;;;12;;
75342;SDS011;63936;51.006;13.764;2023-01-28T01:58:04;18;;;12;;
75342;SDS011;63936;51.006;13.764;2023-01-28T02:00:05;20;;;12;;
75342;SDS011;63936;51.006;13.764;2023-01-28T02:02:02;18;;;9;;
75342;SDS011;63936;51.006;13.764;2023-01-28T02:04:03;14;;;8;;
75342;SDS011;63936;51.006;13.764;2023-01-28T02:06:02;13;;;7;;
75342;SDS011;63936;51.006;13.764;2023-01-28T02:08:01;17;;;9;;
75342;SDS011;63936;51.006;13.764;2023-01-28T02:10:01;18;;;11;;
75342;SDS011;63936;51.006;13.764;2023-01-28T02:12:02;18;;;11;;
75342;SDS011;63936;51.006;13.764;2023-01-28T02:14:02;18;;;7;;
75342;SDS011;63936;51.006;13.764;2023-01-28T02:16:01;18;;;7;;
75342;SDS011;63936;51.006;13.764;2023-01-28T02:18:01;13;;;7;;
75342;SDS011;63936;51.006;13.764;2023-01-28T02:20:03;17;;;10;;
75342;SDS011;63936;51.006;13.764;2023-01-28T02:22:05;18;;;10;;
75342;SDS011;63936;51.006;13.764;2023-01-28T02:24:07;14;;;7;;
75342;SDS011;63936;51.006;13.764;2023-01-28T02:26:12;13;;;7;;
75342;SDS011;63936;51.006;13.764;2023-01-28T02:28:07;13;;;7;;
75342;SDS011;63936;51.006;13.764;2023-01-28T02:30:04;19;;;11;;
75342;SDS011;63936;51.006;13.764;2023-01-28T02:32:02;20;;;13;;
75342;SDS011;63936;51.006;13.764;2023-01-28T02:34:01;14;;;8;;
75342;SDS011;63936;51.006;13.764;2023-01-28T02:36:02;13;;;7;;
75342;SDS011;63936;51.006;13.764;2023-01-28T02:38:03;13;;;7;;
75342;SDS011;63936;51.006;13.764;2023-01-28T02:40:03;12;;;6;;
75342;SDS011;63936;51.006;13.764;2023-01-28T02:42:03;13;;;7;;
75342;SDS011;63936;51.006;13.764;2023-01-28T02:44:02;13;;;7;;
75342;SDS011;63936;51.006;13.764;2023-01-28T02:46:03;18;;;11;;
75342;SDS011;63936;51.006;13.764;2023-01-28T02:48:01;19;;;12;;
75342;SDS011;63936;51.006;13.764;2023-01-28T02:50:03;19;;;12;;
75342;SDS011;63936;51.006;13.764;2023-01-28T02:52:07;18;;;11;;
75342;SDS011;63936;51.006;13.764;2023-01-28T02:54:03;18;;;11;;
75342;SDS011;63936;51.006;13.764;2023-01-28T02:56:05;18;;;12;;
75342;SDS011;63936;51.006;13.764;2023-01-28T02:58:03;16;;;9;;
75342;SDS011;63936;51.006;13.764;2023-01-28T03:00:02;16;;;9;;
75342;SDS011;63936;51.006;13.764;2023-01-28T03:02:05;17;;;10;;
75342;SDS011;63936;51.006;13.764;2023-01-28T03:04:02;13;;;8;;
75342;SDS011;63936;51.006;13.764;2023-01-28T03:06:02;13;;;8;;
75342;SDS011;63936;51.006;13.764;2023-01-28T03:08:04;19;;;12;;
75342;SDS011;63936;51.006;13.764;2023-01-28T03:10:06;19;;;12;;
75342;SDS011;63936;51.006;13.764;2023-01-28T03:12:03;21;;;12;;
75342;SDS011;63936;51.006;13.764;2023-01-28T03:14:02;14;;;8;;
75342;SDS011;63936;51.006;13.764;2023-01-28T03:16:01;14;;;8;;
75342;SDS011;63936;51.006;13.764;2023-01-28T03:18:02;12;;;7;;
75342;SDS011;63936;51.006;13.764;2023-01-28T03:20:01;12;;;7;;
75342;SDS011;63936;51.006;13.764;2023-01-28T03:22:01;16;;;9;;
75342;SDS011;63936;51.006;13.764;2023-01-28T03:24:02;15;;;9;;
75342;SDS011;63936;51.006;13.764;2023-01-28T03:26:01;15;;;9;;
75342;SDS011;63936;51.006;13.764;2023-01-28T03:28:02;18;;;11;;
75342;SDS011;63936;51.006;13.764;2023-01-28T03:30:02;13;;;8;;
75342;SDS011;63936;51.006;13.764;2023-01-28T03:32:01;15;;;8;;
75342;SDS011;63936;51.006;13.764;2023-01-28T03:34:01;15;;;8;;
75342;SDS011;63936;51.006;13.764;2023-01-28T03:36:01;16;;;10;;
75342;SDS011;63936;51.006;13.764;2023-01-28T03:38:01;16;;;10;;
75342;SDS011;63936;51.006;13.764;2023-01-28T03:40:03;21;;;12;;
75342;SDS011;63936;51.006;13.764;2023-01-28T03:42:02;14;;;8;;
75342;SDS011;63936;51.006;13.764;2023-01-28T03:44:02;14;;;8;;
75342;SDS011;63936;51.006;13.764;2023-01-28T03:46:01;19;;;11;;
75342;SDS011;63936;51.006;13.764;2023-01-28T03:48:01;13;;;9;;
75342;SDS011;63936;51.006;13.764;2023-01-28T03:50:01;13;;;9;;
75342;SDS011;63936;51.006;13.764;2023-01-28T03:52:01;17;;;11;;
75342;SDS011;63936;51.006;13.764;2023-01-28T03:54:01;15;;;8;;
75342;SDS011;63936;51.006;13.764;2023-01-28T03:56:01;12;;;6;;
75342;SDS011;63936;51.006;13.764;2023-01-28T03:58:01;10;;;6;;
75342;SDS011;63936;51.006;13.764;2023-01-28T04:00:01;13;;;6;;
75342;SDS011;63936;51.006;13.764;2023-01-28T04:02:01;11;;;6;;
75342;SDS011;63936;51.006;13.764;2023-01-28T04:04:02;11;;;6;;
75342;SDS011;63936;51.006;13.764;2023-01-28T04:06:03;17;;;10;;
75342;SDS011;63936;51.006;13.764;2023-01-28T04:08:03;14;;;8;;
75342;SDS011;63936;51.006;13.764;2023-01-28T04:10:04;12;;;7;;
75342;SDS011;63936;51.006;13.764;2023-01-28T04:12:01;12;;;7;;
75342;SDS011;63936;51.006;13.764;2023-01-28T04:14:01;15;;;9;;
75342;SDS011;63936;51.006;13.764;2023-01-28T04:16:01;16;;;9;;
75342;SDS011;63936;51.006;13.764;2023-01-28T04:18:01;16;;;9;;
75342;SDS011;63936;51.006;13.764;2023-01-28T04:20:02;15;;;9;;
75342;SDS011;63936;51.006;13.764;2023-01-28T04:22:02;13;;;8;;
75342;SDS011;63936;51.006;13.764;2023-01-28T04:24:01;12;;;7;;
75342;SDS011;63936;51.006;13.764;2023-01-28T04:26:01;16;;;7;;
75342;SDS011;63936;51.006;13.764;2023-01-28T04:28:02;12;;;8;;
75342;SDS011;63936;51.006;13.764;2023-01-28T04:30:02;12;;;8;;
75342;SDS011;63936;51.006;13.764;2023-01-28T04:32:02;18;;;10;;
75342;SDS011;63936;51.006;13.764;2023-01-28T04:34:02;15;;;10;;
75342;SDS011;63936;51.006;13.764;2023-01-28T04:36:02;15;;;7;;
75342;SDS011;63936;51.006;13.764;2023-01-28T04:38:01;15;;;7;;
75342;SDS011;63936;51.006;13.764;2023-01-28T04:40:01;18;;;10;;
75342;SDS011;63936;51.006;13.764;2023-01-28T04:42:01;18;;;10;;
75342;SDS011;63936;51.006;13.764;2023-01-28T04:44:01;18;;;10;;
75342;SDS011;63936;51.006;13.764;2023-01-28T04:46:01;15;;;9;;
75342;SDS011;63936;51.006;13.764;2023-01-28T04:48:01;15;;;9;;
75342;SDS011;63936;51.006;13.764;2023-01-28T04:50:02;16;;;9;;
75342;SDS011;63936;51.006;13.764;2023-01-28T04:52:01;12;;;8;;
75342;SDS011;63936;51.006;13.764;2023-01-28T04:54:01;9;;;6;;
75342;SDS011;63936;51.006;13.764;2023-01-28T04:56:02;9;;;6;;
75342;SDS011;63936;51.006;13.764;2023-01-28T04:58:01;13;;;8;;
75342;SDS011;63936;51.006;13.764;2023-01-28T05:00:03;12;;;8;;
75342;SDS011;63936;51.006;13.764;2023-01-28T05:02:01;12;;;8;;
75342;SDS011;63936;51.006;13.764;2023-01-28T05:04:01;10;;;5;;
75342;SDS011;63936;51.006;13.764;2023-01-28T05:06:01;10;;;5;;
75342;SDS011;63936;51.006;13.764;2023-01-28T05:08:01;12;;;7;;
75342;SDS011;63936;51.006;13.764;2023-01-28T05:10:02;13;;;8;;
75342;SDS011;63936;51.006;13.764;2023-01-28T05:12:02;10;;;6;;
75342;SDS011;63936;51.006;13.764;2023-01-28T05:14:02;10;;;5;;
75342;SDS011;63936;51.006;13.764;2023-01-28T05:16:01;11;;;4;;
75342;SDS011;63936;51.006;13.764;2023-01-28T05:18:01;11;;;6;;
75342;SDS011;63936;51.006;13.764;2023-01-28T05:20:01;11;;;6;;
75342;SDS011;63936;51.006;13.764;2023-01-28T05:22:01;11;;;7;;
75342;SDS011;63936;51.006;13.764;2023-01-28T05:24:01;11;;;7;;
75342;SDS011;63936;51.006;13.764;2023-01-28T05:26:01;11;;;7;;
75342;SDS011;63936;51.006;13.764;2023-01-28T05:28:01;10;;;6;;
75342;SDS011;63936;51.006;13.764;2023-01-28T05:30:02;10;;;6;;
75342;SDS011;63936;51.006;13.764;2023-01-28T05:32:01;10;;;6;;
75342;SDS011;63936;51.006;13.764;2023-01-28T05:34:01;8;;;5;;
75342;SDS011;63936;51.006;13.764;2023-01-28T05:36:01;8;;;5;;
75342;SDS011;63936;51.006;13.764;2023-01-28T05:38:01;9;;;5;;
75342;SDS011;63936;51.006;13.764;2023-01-28T05:40:02;8;;;5;;
75342;SDS011;63936;51.006;13.764;2023-01-28T05:42:01;8;;;4;;
75342;SDS011;63936;51.006;13.764;2023-01-28T05:44:01;8;;;4;;
75342;SDS011;63936;51.006;13.764;2023-01-28T05:46:01;10;;;5;;
75342;SDS011;63936;51.006;13.764;2023-01-28T05:48:01;7;;;4;;
75342;SDS011;63936;51.006;13.764;2023-01-28T05:50:01;7;;;4;;
75342;SDS011;63936;51.006;13.764;2023-01-28T05:52:01;9;;;5;;
75342;SDS011;63936;51.006;13.764;2023-01-28T05:54:01;9;;;5;;
75342;SDS011;63936;51.006;13.764;2023-01-28T05:56:01;10;;;6;;
75342;SDS011;63936;51.006;13.764;2023-01-28T05:58:01;10;;;6;;
75342;SDS011;63936;51.006;13.764;2023-01-28T06:00:02;9;;;6;;
75342;SDS011;63936;51.006;13.764;2023-01-28T06:02:01;11;;;5;;
75342;SDS011;63936;51.006;13.764;2023-01-28T06:04:01;11;;;5;;
75342;SDS011;63936;51.006;13.764;2023-01-28T06:06:01;10;;;6;;
75342;SDS011;63936;51.006;13.764;2023-01-28T06:08:01;10;;;6;;
75342;SDS011;63936;51.006;13.764;2023-01-28T06:10:01;10;;;6;;
75342;SDS011;63936;51.006;13.764;2023-01-28T06:12:01;9;;;5;;
75342;SDS011;63936;51.006;13.764;2023-01-28T06:14:02;9;;;5;;
75342;SDS011;63936;51.006;13.764;2023-01-28T06:16:02;10;;;6;;
75342;SDS011;63936;51.006;13.764;2023-01-28T06:18:01;10;;;6;;
75342;SDS011;63936;51.006;13.764;2023-01-28T06:20:03;10;;;6;;
75342;SDS011;63936;51.006;13.764;2023-01-28T06:22:02;9;;;5;;
75342;SDS011;63936;51.006;13.764;2023-01-28T06:24:02;9;;;5;;
75342;SDS011;63936;51.006;13.764;2023-01-28T06:26:02;11;;;6;;
75342;SDS011;63936;51.006;13.764;2023-01-28T06:28:02;9;;;5;;
75342;SDS011;63936;51.006;13.764;2023-01-28T06:30:04;11;;;6;;
75342;SDS011;63936;51.006;13.764;2023-01-28T06:32:01;12;;;5;;
75342;SDS011;63936;51.006;13.764;2023-01-28T06:34:02;12;;;5;;
75342;SDS011;63936;51.006;13.764;2023-01-28T06:36:01;11;;;6;;
75342;SDS011;63936;51.006;13.764;2023-01-28T06:38:02;11;;;6;;
75342;SDS011;63936;51.006;13.764;2023-01-28T06:40:04;13;;;7;;
75342;SDS011;63936;51.006;13.764;2023-01-28T06:42:02;12;;;5;;
75342;SDS011;63936;51.006;13.764;2023-01-28T06:44:02;8;;;4;;
75342;SDS011;63936;51.006;13.764;2023-01-28T06:46:02;8;;;4;;
75342;SDS011;63936;51.006;13.764;2023-01-28T06:48:01;10;;;5;;
75342;SDS011;63936;51.006;13.764;2023-01-28T06:50:04;10;;;5;;
75342;SDS011;63936;51.006;13.764;2023-01-28T06:52:01;11;;;6;;
75342;SDS011;63936;51.006;13.764;2023-01-28T06:54:02;8;;;5;;
75342;SDS011;63936;51.006;13.764;2023-01-28T06:56:02;8;;;4;;
75342;SDS011;63936;51.006;13.764;2023-01-28T06:58:02;8;;;4;;
75342;SDS011;63936;51.006;13.764;2023-01-28T07:00:04;9;;;6;;
75342;SDS011;63936;51.006;13.764;2023-01-28T07:02:01;9;;;6;;
75342;SDS011;63936;51.006;13.764;2023-01-28T07:04:01;10;;;6;;
75342;SDS011;63936;51.006;13.764;2023-01-28T07:06:03;8;;;5;;
75342;SDS011;63936;51.006;13.764;2023-01-28T07:08:02;8;;;5;;
75342;SDS011;63936;51.006;13.764;2023-01-28T07:10:03;10;;;6;;
75342;SDS011;63936;51.006;13.764;2023-01-28T07:12:01;10;;;5;;
75342;SDS011;63936;51.006;13.764;2023-01-28T07:14:01;10;;;5;;
75342;SDS011;63936;51.006;13.764;2023-01-28T07:16:02;9;;;6;;
75342;SDS011;63936;51.006;13.764;2023-01-28T07:18:01;9;;;6;;
75342;SDS011;63936;51.006;13.764;2023-01-28T07:20:04;11;;;6;;
75342;SDS011;63936;51.006;13.764;2023-01-28T07:22:02;11;;;6;;
75342;SDS011;63936;51.006;13.764;2023-01-28T07:24:01;9;;;6;;
75342;SDS011;63936;51.006;13.764;2023-01-28T07:26:03;9;;;6;;
75342;SDS011;63936;51.006;13.764;2023-01-28T07:28:02;11;;;6;;
75342;SDS011;63936;51.006;13.764;2023-01-28T07:30:03;9;;;5;;
75342;SDS011;63936;51.006;13.764;2023-01-28T07:32:01;7;;;4;;
75342;SDS011;63936;51.006;13.764;2023-01-28T07:34:01;7;;;4;;
75342;SDS011;63936;51.006;13.764;2023-01-28T07:36:02;8;;;5;;
75342;SDS011;63936;51.006;13.764;2023-01-28T07:38:02;8;;;5;;
75342;SDS011;63936;51.006;13.764;2023-01-28T07:40:03;8;;;4;;
75342;SDS011;63936;51.006;13.764;2023-01-28T07:42:02;9;;;4;;
75342;SDS011;63936;51.006;13.764;2023-01-28T07:44:02;9;;;4;;
75342;SDS011;63936;51.006;13.764;2023-01-28T07:46:01;9;;;5;;
75342;SDS011;63936;51.006;13.764;2023-01-28T07:48:02;9;;;5;;
75342;SDS011;63936;51.006;13.764;2023-01-28T07:50:04;9;;;5;;
75342;SDS011;63936;51.006;13.764;2023-01-28T07:52:01;8;;;4;;
75342;SDS011;63936;51.006;13.764;2023-01-28T07:54:01;10;;;4;;
75342;SDS011;63936;51.006;13.764;2023-01-28T07:56:01;9;;;4;;
75342;SDS011;63936;51.006;13.764;2023-01-28T07:58:02;7;;;4;;
75342;SDS011;63936;51.006;13.764;2023-01-28T08:00:04;7;;;4;;
75342;SDS011;63936;51.006;13.764;2023-01-28T08:02:02;8;;;4;;
75342;SDS011;63936;51.006;13.764;2023-01-28T08:04:01;8;;;4;;
75342;SDS011;63936;51.006;13.764;2023-01-28T08:06:01;8;;;4;;
75342;SDS011;63936;51.006;13.764;2023-01-28T08:08:01;8;;;4;;
75342;SDS011;63936;51.006;13.764;2023-01-28T08:10:04;8;;;3;;
75342;SDS011;63936;51.006;13.764;2023-01-28T08:12:02;8;;;3;;
75342;SDS011;63936;51.006;13.764;2023-01-28T08:14:01;7;;;4;;
75342;SDS011;63936;51.006;13.764;2023-01-28T08:16:01;7;;;4;;
75342;SDS011;63936;51.006;13.764;2023-01-28T08:18:02;8;;;5;;
75342;SDS011;63936;51.006;13.764;2023-01-28T08:20:05;8;;;5;;
75342;SDS011;63936;51.006;13.764;2023-01-28T08:22:02;13;;;4;;
75342;SDS011;63936;51.006;13.764;2023-01-28T08:24:02;13;;;4;;
75342;SDS011;63936;51.006;13.764;2023-01-28T08:26:01;9;;;4;;
75342;SDS011;63936;51.006;13.764;2023-01-28T08:28:02;8;;;4;;
75342;SDS011;63936;51.006;13.764;2023-01-28T08:30:03;9;;;5;;
75342;SDS011;63936;51.006;13.764;2023-01-28T08:32:01;9;;;5;;
75342;SDS011;63936;51.006;13.764;2023-01-28T08:34:01;8;;;5;;
75342;SDS011;63936;51.006;13.764;2023-01-28T08:36:02;8;;;4;;
75342;SDS011;63936;51.006;13.764;2023-01-28T08:38:02;8;;;4;;
75342;SDS011;63936;51.006;13.764;2023-01-28T08:40:03;8;;;4;;
75342;SDS011;63936;51.006;13.764;2023-01-28T08:42:01;6;;;3;;
75342;SDS011;63936;51.006;13.764;2023-01-28T08:44:01;7;;;4;;
75342;SDS011;63936;51.006;13.764;2023-01-28T08:46:03;6;;;3;;
75342;SDS011;63936;51.006;13.764;2023-01-28T08:48:02;6;;;3;;
75342;SDS011;63936;51.006;13.764;2023-01-28T08:50:03;6;;;3;;
75342;SDS011;63936;51.006;13.764;2023-01-28T08:52:01;7;;;4;;
75342;SDS011;63936;51.006;13.764;2023-01-28T08:54:01;9;;;4;;
75342;SDS011;63936;51.006;13.764;2023-01-28T08:56:01;8;;;4;;
75342;SDS011;63936;51.006;13.764;2023-01-28T08:58:01;6;;;3;;
75342;SDS011;63936;51.006;13.764;2023-01-28T09:00:03;7;;;4;;
75342;SDS011;63936;51.006;13.764;2023-01-28T09:02:01;8;;;4;;
75342;SDS011;63936;51.006;13.764;2023-01-28T09:04:02;8;;;4;;
75342;SDS011;63936;51.006;13.764;2023-01-28T09:06:02;9;;;4;;
75342;SDS011;63936;51.006;13.764;2023-01-28T09:08:02;9;;;4;;
75342;SDS011;63936;51.006;13.764;2023-01-28T09:10:02;8;;;4;;
75342;SDS011;63936;51.006;13.764;2023-01-28T09:12:01;8;;;4;;
75342;SDS011;63936;51.006;13.764;2023-01-28T09:14:01;8;;;4;;
75342;SDS011;63936;51.006;13.764;2023-01-28T09:16:03;6;;;4;;
75342;SDS011;63936;51.006;13.764;2023-01-28T09:18:01;6;;;3;;
75342;SDS011;63936;51.006;13.764;2023-01-28T09:20:03;7;;;4;;
75342;SDS011;63936;51.006;13.764;2023-01-28T09:22:02;7;;;4;;
75342;SDS011;63936;51.006;13.764;2023-01-28T09:24:01;6;;;3;;
75342;SDS011;63936;51.006;13.764;2023-01-28T09:26:02;7;;;4;;
75342;SDS011;63936;51.006;13.764;2023-01-28T09:28:02;7;;;4;;
75342;SDS011;63936;51.006;13.764;2023-01-28T09:30:03;8;;;3;;
75342;SDS011;63936;51.006;13.764;2023-01-28T09:32:01;8;;;3;;
75342;SDS011;63936;51.006;13.764;2023-01-28T09:34:01;8;;;3;;
75342;SDS011;63936;51.006;13.764;2023-01-28T09:36:03;9;;;5;;
75342;SDS011;63936;51.006;13.764;2023-01-28T09:38:01;9;;;5;;
75342;SDS011;63936;51.006;13.764;2023-01-28T09:40:03;10;;;5;;
75342;SDS011;63936;51.006;13.764;2023-01-28T09:42:06;8;;;5;;
75342;SDS011;63936;51.006;13.764;2023-01-28T09:44:03;10;;;5;;
75342;SDS011;63936;51.006;13.764;2023-01-28T09:46:02;10;;;6;;
75342;SDS011;63936;51.006;13.764;2023-01-28T09:48:02;9;;;5;;
75342;SDS011;63936;51.006;13.764;2023-01-28T09:50:05;8;;;5;;
75342;SDS011;63936;51.006;13.764;2023-01-28T09:52:01;8;;;5;;
75342;SDS011;63936;51.006;13.764;2023-01-28T09:54:02;8;;;4;;
75342;SDS011;63936;51.006;13.764;2023-01-28T09:56:02;8;;;4;;
75342;SDS011;63936;51.006;13.764;2023-01-28T09:58:03;9;;;5;;
75342;SDS011;63936;51.006;13.764;2023-01-28T10:00:08;8;;;4;;
75342;SDS011;63936;51.006;13.764;2023-01-28T10:02:03;7;;;4;;
75342;SDS011;63936;51.006;13.764;2023-01-28T10:04:02;7;;;4;;
75342;SDS011;63936;51.006;13.764;2023-01-28T10:06:04;7;;;3;;
75342;SDS011;63936;51.006;13.764;2023-01-28T10:08:06;9;;;5;;
75342;SDS011;63936;51.006;13.764;2023-01-28T10:10:05;9;;;5;;
75342;SDS011;63936;51.006;13.764;2023-01-28T10:12:03;9;;;4;;
75342;SDS011;63936;51.006;13.764;2023-01-28T10:14:03;10;;;4;;
75342;SDS011;63936;51.006;13.764;2023-01-28T10:16:04;13;;;6;;
75342;SDS011;63936;51.006;13.764;2023-01-28T10:18:02;10;;;5;;
75342;SDS011;63936;51.006;13.764;2023-01-28T10:20:02;9;;;5;;
75342;SDS011;63936;51.006;13.764;2023-01-28T10:22:02;9;;;5;;
75342;SDS011;63936;51.006;13.764;2023-01-28T10:24:02;5;;;3;;
75342;SDS011;63936;51.006;13.764;2023-01-28T10:26:02;5;;;3;;
75342;SDS011;63936;51.006;13.764;2023-01-28T10:28:04;6;;;3;;
75342;SDS011;63936;51.006;13.764;2023-01-28T10:30:08;6;;;3;;
75342;SDS011;63936;51.006;13.764;2023-01-28T10:32:03;6;;;3;;
75342;SDS011;63936;51.006;13.764;2023-01-28T10:34:02;7;;;4;;
75342;SDS011;63936;51.006;13.764;2023-01-28T10:36:02;7;;;4;;
75342;SDS011;63936;51.006;13.764;2023-01-28T10:38:03;7;;;4;;
75342;SDS011;63936;51.006;13.764;2023-01-28T10:40:03;7;;;4;;
75342;SDS011;63936;51.006;13.764;2023-01-28T10:42:01;6;;;3;;
75342;SDS011;63936;51.006;13.764;2023-01-28T10:44:01;6;;;3;;
75342;SDS011;63936;51.006;13.764;2023-01-28T10:46:02;7;;;3;;
75342;SDS011;63936;51.006;13.764;2023-01-28T10:48:02;6;;;4;;
75342;SDS011;63936;51.006;13.764;2023-01-28T10:50:03;6;;;3;;
75342;SDS011;63936;51.006;13.764;2023-01-28T10:52:09;6;;;3;;
75342;SDS011;63936;51.006;13.764;2023-01-28T10:54:02;6;;;3;;
75342;SDS011;63936;51.006;13.764;2023-01-28T10:56:02;7;;;3;;
75342;SDS011;63936;51.006;13.764;2023-01-28T10:58:02;6;;;3;;
75342;SDS011;63936;51.006;13.764;2023-01-28T11:00:10;6;;;3;;
75342;SDS011;63936;51.006;13.764;2023-01-28T11:02:03;6;;;3;;
75342;SDS011;63936;51.006;13.764;2023-01-28T11:04:02;10;;;5;;
75342;SDS011;63936;51.006;13.764;2023-01-28T11:06:01;10;;;5;;
75342;SDS011;63936;51.006;13.764;2023-01-28T11:08:02;7;;;4;;
75342;SDS011;63936;51.006;13.764;2023-01-28T11:10:02;7;;;4;;
75342;SDS011;63936;51.006;13.764;2023-01-28T11:12:09;7;;;4;;
75342;SDS011;63936;51.006;13.764;2023-01-28T11:14:01;7;;;4;;
75342;SDS011;63936;51.006;13.764;2023-01-28T11:16:02;8;;;4;;
75342;SDS011;63936;51.006;13.764;2023-01-28T11:18:02;8;;;4;;
75342;SDS011;63936;51.006;13.764;2023-01-28T11:20:08;8;;;4;;
75342;SDS011;63936;51.006;13.764;2023-01-28T11:22:01;6;;;3;;
75342;SDS011;63936;51.006;13.764;2023-01-28T11:24:01;6;;;3;;
75342;SDS011;63936;51.006;13.764;2023-01-28T11:26:02;7;;;3;;
75342;SDS011;63936;51.006;13.764;2023-01-28T11:28:02;7;;;3;;
75342;SDS011;63936;51.006;13.764;2023-01-28T11:30:02;7;;;3;;
75342;SDS011;63936;51.006;13.764;2023-01-28T11:32:01;7;;;4;;
75342;SDS011;63936;51.006;13.764;2023-01-28T11:34:01;7;;;4;;
75342;SDS011;63936;51.006;13.764;2023-01-28T11:36:04;7;;;3;;
75342;SDS011;63936;51.006;13.764;2023-01-28T11:38:01;7;;;3;;
75342;SDS011;63936;51.006;13.764;2023-01-28T11:40:08;7;;;3;;
75342;SDS011;63936;51.006;13.764;2023-01-28T11:42:02;8;;;4;;
75342;SDS011;63936;51.006;13.764;2023-01-28T11:44:08;8;;;4;;
75342;SDS011;63936;51.006;13.764;2023-01-28T11:46:07;7;;;4;;
75342;SDS011;63936;51.006;13.764;2023-01-28T11:48:05;7;;;3;;
75342;SDS011;63936;51.006;13.764;2023-01-28T11:50:06;7;;;3;;
75342;SDS011;63936;51.006;13.764;2023-01-28T11:52:02;6;;;3;;
75342;SDS011;63936;51.006;13.764;2023-01-28T11:54:08;6;;;3;;
75342;SDS011;63936;51.006;13.764;2023-01-28T11:56:05;6;;;3;;
75342;SDS011;63936;51.006;13.764;2023-01-28T11:58:03;6;;;3;;
75342;SDS011;63936;51.006;13.764;2023-01-28T12:00:08;7;;;3;;
75342;SDS011;63936;51.006;13.764;2023-01-28T12:02:03;7;;;3;;
75342;SDS011;63936;51.006;13.764;2023-01-28T12:04:12;6;;;2;;
75342;SDS011;63936;51.006;13.764;2023-01-28T12:06:06;6;;;3;;
75342;SDS011;63936;51.006;13.764;2023-01-28T12:08:03;7;;;3;;
75342;SDS011;63936;51.006;13.764;2023-01-28T12:10:03;7;;;3;;
75342;SDS011;63936;51.006;13.764;2023-01-28T12:12:05;7;;;4;;
75342;SDS011;63936;51.006;13.764;2023-01-28T12:14:04;6;;;3;;
75342;SDS011;63936;51.006;13.764;2023-01-28T12:16:19;5;;;3;;
75342;SDS011;63936;51.006;13.764;2023-01-28T12:18:04;5;;;3;;
75342;SDS011;63936;51.006;13.764;2023-01-28T12:20:04;8;;;3;;
75342;SDS011;63936;51.006;13.764;2023-01-28T12:22:05;5;;;3;;
75342;SDS011;63936;51.006;13.764;2023-01-28T12:24:05;6;;;3;;
75342;SDS011;63936;51.006;13.764;2023-01-28T12:26:03;7;;;3;;
75342;SDS011;63936;51.006;13.764;2023-01-28T12:28:02;7;;;3;;
75342;SDS011;63936;51.006;13.764;2023-01-28T12:30:05;7;;;3;;
75342;SDS011;63936;51.006;13.764;2023-01-28T12:32:05;10;;;5;;
75342;SDS011;63936;51.006;13.764;2023-01-28T12:34:06;10;;;5;;
75342;SDS011;63936;51.006;13.764;2023-01-28T12:36:02;11;;;8;;
75342;SDS011;63936;51.006;13.764;2023-01-28T12:38:05;11;;;8;;
75342;SDS011;63936;51.006;13.764;2023-01-28T12:40:04;9;;;6;;
75342;SDS011;63936;51.006;13.764;2023-01-28T12:42:03;9;;;5;;
75342;SDS011;63936;51.006;13.764;2023-01-28T12:44:02;6;;;3;;
75342;SDS011;63936;51.006;13.764;2023-01-28T12:46:01;7;;;3;;
75342;SDS011;63936;51.006;13.764;2023-01-28T12:48:01;6;;;3;;
75342;SDS011;63936;51.006;13.764;2023-01-28T12:50:02;6;;;3;;
75342;SDS011;63936;51.006;13.764;2023-01-28T12:52:02;6;;;3;;